createdAt,value
2023-01-01T00:02:28.240Z,10.29
2023-01-01T00:05:03.013Z,10.23
2023-01-01T00:07:34.618Z,10.18
2023-01-01T00:10:24.948Z,10.15
2023-01-01T00:12:56.641Z,10.14
2023-01-01T00:15:29.386Z,10.13
2023-01-01T00:18:00.967Z,10.11
2023-01-01T00:20:35.477Z,10.14
2023-01-01T00:23:07.478Z,10.10
2023-01-01T00:25:40.539Z,10.06
2023-01-01T00:28:12.140Z,10.01
2023-01-01T00:30:44.124Z,9.94
2023-01-01T00:33:15.680Z,9.88
2023-01-01T00:35:47.253Z,9.81
2023-01-01T00:38:18.839Z,9.74
2023-01-01T00:40:50.484Z,9.65
2023-01-01T00:43:22.112Z,9.57
2023-01-01T00:45:53.803Z,9.47
2023-01-01T00:48:25.538Z,9.40
2023-01-01T00:50:57.252Z,9.34
2023-01-01T00:53:29.106Z,9.28
2023-01-01T00:56:00.719Z,9.26
2023-01-01T00:58:32.529Z,9.24
2023-01-01T01:01:04.276Z,9.21
2023-01-01T01:03:36.309Z,9.18
2023-01-01T01:06:13.804Z,9.16
2023-01-01T01:08:47.290Z,9.13
2023-01-01T01:11:22.283Z,9.08
2023-01-01T01:13:55.913Z,9.01
2023-01-01T01:16:29.811Z,8.91
2023-01-01T01:19:04.115Z,8.82
2023-01-01T01:21:36.772Z,8.71
2023-01-01T01:24:11.024Z,8.64
2023-01-01T01:26:42.826Z,8.57
2023-01-01T01:29:14.483Z,8.52
2023-01-01T01:31:46.148Z,8.54
2023-01-01T01:34:20.029Z,8.55
2023-01-01T01:36:54.309Z,8.53
2023-01-01T01:39:26.368Z,8.51
2023-01-01T01:41:57.992Z,8.56
2023-01-01T01:44:56.036Z,8.65
2023-01-01T01:47:35.889Z,8.73
2023-01-01T01:50:15.462Z,8.79
2023-01-01T01:52:57.077Z,8.81
2023-01-01T01:55:30.882Z,8.82
2023-01-01T01:58:03.797Z,8.86
2023-01-01T02:00:35.560Z,8.95
2023-01-01T02:03:10.165Z,9.06
2023-01-01T02:05:44.552Z,9.14
2023-01-01T02:08:20.259Z,9.22
2023-01-01T02:10:55.298Z,9.30
2023-01-01T02:13:27.188Z,9.36
2023-01-01T02:16:06.106Z,9.37
2023-01-01T02:18:50.041Z,9.38
2023-01-01T02:21:31.607Z,9.36
2023-01-01T02:24:34.374Z,9.31
2023-01-01T02:27:10.784Z,9.22
2023-01-01T02:29:47.251Z,9.15
2023-01-01T02:32:25.250Z,9.09
2023-01-01T02:35:22.863Z,9.03
2023-01-01T02:37:59.158Z,8.97
2023-01-01T02:40:31.886Z,8.90
2023-01-01T02:43:04.963Z,8.83
2023-01-01T02:45:37.885Z,8.77
2023-01-01T02:48:27.733Z,8.68
2023-01-01T02:51:04.929Z,8.57
2023-01-01T02:53:42.768Z,8.50
2023-01-01T02:56:25.138Z,8.39
2023-01-01T02:59:21.535Z,8.35
2023-01-01T03:02:00.239Z,8.30
2023-01-01T03:04:39.107Z,8.24
2023-01-01T03:07:16.062Z,8.15
2023-01-01T03:09:56.223Z,8.06
2023-01-01T03:12:43.731Z,7.93
2023-01-01T03:15:26.595Z,7.81
2023-01-01T03:18:04.074Z,7.64
2023-01-01T03:20:44.895Z,7.55
2023-01-01T03:23:21.248Z,7.51
2023-01-01T03:26:00.515Z,7.48
2023-01-01T03:28:36.842Z,7.44
2023-01-01T03:31:10.212Z,7.45
2023-01-01T03:33:47.414Z,7.48
2023-01-01T03:36:23.664Z,7.52
2023-01-01T03:39:02.056Z,7.56
2023-01-01T03:41:41.834Z,7.57
2023-01-01T03:44:19.585Z,7.58
2023-01-01T03:46:52.046Z,7.63
2023-01-01T03:49:24.348Z,7.69
2023-01-01T03:52:06.594Z,7.75
2023-01-01T03:54:45.929Z,7.84
2023-01-01T03:57:23.988Z,7.99
2023-01-01T04:00:05.315Z,8.23
2023-01-01T04:02:41.256Z,8.42
2023-01-01T04:05:15.828Z,8.59
2023-01-01T04:10:22.504Z,8.86
2023-01-01T04:12:56.976Z,8.94
2023-01-01T04:15:31.710Z,9.01
2023-01-01T04:18:03.501Z,9.07
2023-01-01T04:20:35.259Z,9.11
2023-01-01T04:23:07.013Z,9.10
2023-01-01T04:25:38.623Z,9.12
2023-01-01T04:28:10.244Z,9.11
2023-01-01T04:33:12.428Z,9.17
2023-01-01T04:35:44.007Z,9.24
2023-01-01T04:38:16.982Z,9.36
2023-01-01T04:40:58.170Z,9.48
2023-01-01T04:43:30.296Z,9.59
2023-01-01T04:46:03.280Z,9.71
2023-01-01T04:48:36.411Z,9.82
2023-01-01T04:51:11.360Z,9.93
2023-01-01T04:53:43.569Z,10.02
2023-01-01T04:56:18.476Z,10.10
2023-01-01T04:58:53.994Z,10.18
2023-01-01T05:01:28.719Z,10.16
2023-01-01T05:04:07.008Z,10.15
2023-01-01T05:06:40.329Z,10.13
2023-01-01T05:09:13.387Z,10.11
2023-01-01T05:11:44.999Z,10.09
2023-01-01T05:14:16.823Z,10.05
2023-01-01T05:16:48.442Z,10.05
2023-01-01T05:19:20.261Z,10.10
2023-01-01T05:21:58.453Z,10.17
2023-01-01T05:24:31.542Z,10.22
2023-01-01T05:27:04.652Z,10.31
2023-01-01T05:29:36.317Z,10.52
2023-01-01T05:34:42.511Z,10.90
2023-01-01T05:37:14.324Z,10.98
2023-01-01T05:39:45.935Z,11.05
2023-01-01T05:42:18.990Z,11.13
2023-01-01T05:44:54.338Z,11.20
2023-01-01T05:47:29.617Z,11.22
2023-01-01T05:50:01.537Z,11.23
2023-01-01T05:52:33.756Z,11.18
2023-01-01T05:55:05.726Z,11.14
2023-01-01T05:57:40.764Z,11.15
2023-01-01T06:00:15.040Z,11.16
2023-01-01T06:02:51.208Z,11.13
2023-01-01T06:05:25.372Z,11.08
2023-01-01T06:07:59.422Z,11.07
2023-01-01T06:10:31.073Z,11.07
2023-01-01T06:13:09.547Z,11.04
2023-01-01T06:15:44.541Z,11.00
2023-01-01T06:18:29.988Z,10.94
2023-01-01T06:21:08.601Z,10.86
2023-01-01T06:23:46.230Z,10.79
2023-01-01T06:26:19.899Z,10.73
2023-01-01T06:28:50.430Z,10.72
2023-01-01T06:31:25.823Z,10.71
2023-01-01T06:33:58.377Z,10.72
2023-01-01T06:36:31.438Z,10.74
2023-01-01T06:39:03.712Z,10.73
2023-01-01T06:41:35.414Z,10.67
2023-01-01T06:44:07.420Z,10.67
2023-01-01T06:46:40.700Z,10.62
2023-01-01T06:49:15.609Z,10.56
2023-01-01T06:51:47.271Z,10.49
2023-01-01T06:54:19.123Z,10.46
2023-01-01T06:56:50.864Z,10.47
2023-01-01T06:59:22.472Z,10.47
2023-01-01T07:01:56.573Z,10.49
2023-01-01T07:04:30.279Z,10.53
2023-01-01T07:07:02.158Z,10.54
2023-01-01T07:09:39.822Z,10.51
2023-01-01T07:12:11.603Z,10.48
2023-01-01T07:14:43.335Z,10.45
2023-01-01T07:17:14.961Z,10.40
2023-01-01T07:19:48.567Z,10.35
2023-01-01T07:22:23.133Z,10.31
2023-01-01T07:24:54.774Z,10.31
2023-01-01T07:27:26.454Z,10.33
2023-01-01T07:29:58.187Z,10.36
2023-01-01T07:32:29.947Z,10.43
2023-01-01T07:35:03.851Z,10.49
2023-01-01T07:37:35.507Z,10.53
2023-01-01T07:40:08.816Z,10.55
2023-01-01T07:42:40.410Z,10.55
2023-01-01T07:45:14.241Z,10.54
2023-01-01T07:47:49.808Z,10.52
2023-01-01T07:50:22.717Z,10.51
2023-01-01T07:52:54.483Z,10.50
2023-01-01T07:55:26.459Z,10.50
2023-01-01T07:57:59.108Z,10.51
2023-01-01T08:00:31.459Z,10.49
2023-01-01T08:03:03.328Z,10.48
2023-01-01T08:05:35.860Z,10.48
2023-01-01T08:08:07.820Z,10.48
2023-01-01T08:10:39.568Z,10.50
2023-01-01T08:13:11.485Z,10.51
2023-01-01T08:15:43.110Z,10.52
2023-01-01T08:18:14.762Z,10.54
2023-01-01T08:20:46.417Z,10.59
2023-01-01T08:23:18.031Z,10.65
2023-01-01T08:25:49.584Z,10.71
2023-01-01T08:28:21.230Z,10.77
2023-01-01T08:30:52.817Z,10.82
2023-01-01T08:33:25.283Z,10.85
2023-01-01T08:35:56.882Z,10.87
2023-01-01T08:38:28.885Z,10.90
2023-01-01T08:41:00.658Z,10.90
2023-01-01T08:43:32.403Z,10.90
2023-01-01T08:46:04.021Z,10.94
2023-01-01T08:48:35.651Z,11.03
2023-01-01T08:51:08.047Z,11.15
2023-01-01T08:53:41.151Z,11.31
2023-01-01T08:56:16.290Z,11.54
2023-01-01T08:58:47.896Z,11.82
2023-01-01T09:01:22.154Z,12.09
2023-01-01T09:03:53.951Z,12.30
2023-01-01T09:06:25.511Z,12.50
2023-01-01T09:08:57.095Z,12.66
2023-01-01T09:11:29.946Z,12.78
2023-01-01T09:14:01.690Z,12.84
2023-01-01T09:16:33.764Z,12.87
2023-01-01T09:19:07.140Z,12.91
2023-01-01T09:21:38.980Z,12.95
2023-01-01T09:24:11.554Z,12.96
2023-01-01T09:26:43.116Z,12.94
2023-01-01T09:29:18.411Z,12.98
2023-01-01T09:31:50.646Z,13.01
2023-01-01T09:34:22.447Z,13.06
2023-01-01T09:36:54.137Z,13.14
2023-01-01T09:39:25.884Z,13.25
2023-01-01T09:42:33.320Z,13.37
2023-01-01T09:45:17.207Z,13.43
2023-01-01T09:47:51.369Z,13.45
2023-01-01T09:50:26.225Z,13.43
2023-01-01T09:53:00.987Z,13.39
2023-01-01T09:55:43.068Z,13.34
2023-01-01T09:58:15.094Z,13.29
2023-01-01T10:00:49.183Z,13.25
2023-01-01T10:03:30.969Z,13.24
2023-01-01T10:06:14.897Z,13.23
2023-01-01T10:08:51.455Z,13.22
2023-01-01T10:11:31.204Z,13.25
2023-01-01T10:14:07.000Z,13.30
2023-01-01T10:16:43.995Z,13.39
2023-01-01T10:19:34.809Z,13.48
2023-01-01T10:22:12.437Z,13.60
2023-01-01T10:24:49.678Z,13.67
2023-01-01T10:27:30.905Z,13.76
2023-01-01T10:30:05.844Z,13.88
2023-01-01T10:32:40.996Z,14.08
2023-01-01T10:35:17.073Z,14.22
2023-01-01T10:37:49.940Z,14.34
2023-01-01T10:40:23.665Z,14.48
2023-01-01T10:42:54.560Z,14.69
2023-01-01T10:45:35.507Z,14.87
2023-01-01T10:48:19.764Z,15.08
2023-01-01T10:50:53.680Z,15.50
2023-01-01T10:53:31.476Z,15.94
2023-01-01T10:56:09.567Z,16.47
2023-01-01T10:58:49.215Z,16.89
2023-01-01T11:01:25.516Z,17.42
2023-01-01T11:04:03.225Z,17.77
2023-01-01T11:06:37.116Z,17.95
2023-01-01T11:09:22.757Z,18.09
2023-01-01T11:12:07.132Z,18.03
2023-01-01T11:14:44.926Z,17.70
2023-01-01T11:17:24.284Z,17.44
2023-01-01T11:20:01.808Z,17.36
2023-01-01T11:22:52.815Z,17.31
2023-01-01T11:25:27.068Z,17.20
2023-01-01T11:28:19.586Z,17.02
2023-01-01T11:31:03.516Z,16.97
2023-01-01T11:33:34.829Z,16.97
2023-01-01T11:36:07.996Z,16.94
2023-01-01T11:38:39.690Z,16.95
2023-01-01T11:41:11.371Z,16.94
2023-01-01T11:43:50.016Z,16.86
2023-01-01T11:46:26.097Z,16.77
2023-01-01T11:48:57.941Z,16.70
2023-01-01T11:51:34.418Z,16.63
2023-01-01T11:54:30.598Z,16.56
2023-01-01T11:57:08.601Z,16.46
2023-01-01T11:59:48.169Z,16.41
2023-01-01T12:02:33.641Z,16.37
2023-01-01T12:05:11.577Z,16.29
2023-01-01T12:07:45.928Z,16.22
2023-01-01T12:10:24.015Z,16.14
2023-01-01T12:13:02.853Z,16.08
2023-01-01T12:15:40.623Z,16.03
2023-01-01T12:18:17.769Z,15.96
2023-01-01T12:20:56.662Z,15.91
2023-01-01T12:23:28.905Z,15.95
2023-01-01T12:26:11.973Z,15.99
2023-01-01T12:28:51.819Z,16.00
2023-01-01T12:31:31.772Z,16.02
2023-01-01T12:34:14.952Z,15.95
2023-01-01T12:36:54.780Z,15.86
2023-01-01T12:40:08.963Z,15.73
2023-01-01T12:42:57.620Z,15.61
2023-01-01T12:46:06.000Z,15.52
2023-01-01T12:48:53.085Z,15.41
2023-01-01T12:51:37.140Z,15.32
2023-01-01T12:54:29.462Z,15.24
2023-01-01T12:57:06.653Z,15.15
2023-01-01T12:59:44.195Z,15.06
2023-01-01T13:02:20.041Z,14.99
2023-01-01T13:04:56.338Z,14.93
2023-01-01T13:07:32.064Z,14.87
2023-01-01T13:10:12.649Z,14.80
2023-01-01T13:12:44.725Z,14.76
2023-01-01T13:15:44.186Z,14.71
2023-01-01T13:18:26.327Z,14.64
2023-01-01T13:21:02.370Z,14.58
2023-01-01T13:23:51.833Z,14.52
2023-01-01T13:26:44.149Z,14.45
2023-01-01T13:29:34.914Z,14.39
2023-01-01T13:32:08.932Z,14.32
2023-01-01T13:35:04.100Z,14.26
2023-01-01T13:37:49.329Z,14.20
2023-01-01T13:40:53.422Z,14.17
2023-01-01T13:43:31.446Z,14.11
2023-01-01T13:46:14.720Z,14.04
2023-01-01T13:49:21.423Z,13.98
2023-01-01T13:52:33.546Z,13.92
2023-01-01T13:55:30.801Z,13.85
2023-01-01T13:58:27.288Z,13.79
2023-01-01T14:01:14.722Z,13.71
2023-01-01T14:03:50.794Z,13.65
2023-01-01T14:06:29.775Z,13.61
2023-01-01T14:09:07.407Z,13.56
2023-01-01T14:11:39.129Z,13.50
2023-01-01T14:14:25.327Z,13.46
2023-01-01T14:17:01.109Z,13.41
2023-01-01T14:19:33.282Z,13.36
2023-01-01T14:22:09.473Z,13.33
2023-01-01T14:24:45.996Z,13.27
2023-01-01T14:27:22.791Z,13.23
2023-01-01T14:29:55.323Z,13.18
2023-01-01T14:32:32.157Z,13.14
2023-01-01T14:35:04.462Z,13.12
2023-01-01T14:37:36.314Z,13.07
2023-01-01T14:43:12.976Z,13.01
2023-01-01T14:45:46.298Z,12.95
2023-01-01T14:48:21.149Z,12.91
2023-01-01T14:50:54.918Z,12.89
2023-01-01T14:53:33.109Z,12.84
2023-01-01T14:56:07.226Z,12.78
2023-01-01T14:58:41.497Z,12.71
2023-01-01T15:01:23.927Z,12.66
2023-01-01T15:04:00.794Z,12.59
2023-01-01T15:06:33.712Z,12.52
2023-01-01T15:09:05.637Z,12.45
2023-01-01T15:11:37.321Z,12.37
2023-01-01T15:14:22.419Z,12.31
2023-01-01T15:17:04.648Z,12.24
2023-01-01T15:19:37.575Z,12.18
2023-01-01T15:22:17.073Z,12.12
2023-01-01T15:24:50.036Z,12.06
2023-01-01T15:27:26.372Z,12.02
2023-01-01T15:29:58.761Z,11.97
2023-01-01T15:32:33.107Z,11.92
2023-01-01T15:35:07.181Z,11.89
2023-01-01T15:37:42.826Z,11.85
2023-01-01T15:40:35.486Z,11.80
2023-01-01T15:43:19.798Z,11.74
2023-01-01T15:45:59.941Z,11.70
2023-01-01T15:48:37.799Z,11.67
2023-01-01T15:51:18.005Z,11.66
2023-01-01T15:54:01.451Z,11.65
2023-01-01T15:56:40.123Z,11.64
2023-01-01T15:59:25.919Z,11.64
2023-01-01T16:02:07.047Z,11.64
2023-01-01T16:04:40.156Z,11.62
2023-01-01T16:07:18.937Z,11.60
2023-01-01T16:09:56.982Z,11.60
2023-01-01T16:12:29.930Z,11.62
2023-01-01T16:15:01.517Z,11.63
2023-01-01T16:17:33.474Z,11.64
2023-01-01T16:20:05.498Z,11.66
2023-01-01T16:22:37.317Z,11.66
2023-01-01T16:25:15.953Z,11.68
2023-01-01T16:27:47.829Z,11.69
2023-01-01T16:30:19.783Z,11.68
2023-01-01T16:32:51.450Z,11.68
2023-01-01T16:35:23.581Z,11.64
2023-01-01T16:37:55.361Z,11.60
2023-01-01T16:40:28.537Z,11.55
2023-01-01T16:43:01.957Z,11.53
2023-01-01T16:45:33.851Z,11.49
2023-01-01T16:48:05.767Z,11.45
2023-01-01T16:50:37.354Z,11.36
2023-01-01T16:53:08.944Z,11.29
2023-01-01T16:55:40.874Z,11.23
2023-01-01T16:58:47.801Z,11.20
2023-01-01T17:01:04.408Z,11.15
2023-01-01T17:03:36.553Z,11.19
2023-01-01T17:06:10.372Z,11.11
2023-01-01T17:08:40.562Z,11.01
2023-01-01T17:11:15.260Z,10.97
2023-01-01T17:13:48.423Z,10.95
2023-01-01T17:16:27.051Z,10.92
2023-01-01T17:19:16.998Z,10.87
2023-01-01T17:21:49.788Z,10.84
2023-01-01T17:24:22.550Z,10.80
2023-01-01T17:26:55.733Z,10.78
2023-01-01T17:29:27.758Z,10.73
2023-01-01T17:31:59.537Z,10.65
2023-01-01T17:34:31.929Z,10.57
2023-01-01T17:37:03.823Z,10.50
2023-01-01T17:39:36.568Z,10.43
2023-01-01T17:42:08.788Z,10.36
2023-01-01T17:44:40.511Z,10.33
2023-01-01T17:47:12.141Z,10.30
2023-01-01T17:49:44.065Z,10.27
2023-01-01T17:52:16.660Z,10.21
2023-01-01T17:54:48.683Z,10.10
2023-01-01T17:57:21.045Z,10.02
2023-01-01T17:59:52.690Z,9.94
2023-01-01T18:02:24.739Z,9.86
2023-01-01T18:04:57.037Z,9.76
2023-01-01T18:07:29.108Z,9.63
2023-01-01T18:10:01.069Z,9.48
2023-01-01T18:12:32.801Z,9.40
2023-01-01T18:15:05.105Z,9.31
2023-01-01T18:17:36.727Z,9.23
2023-01-01T18:20:10.411Z,9.14
2023-01-01T18:22:43.204Z,9.07
2023-01-01T18:25:15.420Z,8.99
2023-01-01T18:27:50.052Z,8.91
2023-01-01T18:30:24.374Z,8.85
2023-01-01T18:32:57.153Z,8.78
2023-01-01T18:35:28.920Z,8.73
2023-01-01T18:38:00.656Z,8.76
2023-01-01T18:40:36.979Z,8.81
2023-01-01T18:43:12.869Z,8.87
2023-01-01T18:45:44.491Z,8.92
2023-01-01T18:48:18.916Z,8.99
2023-01-01T18:50:51.692Z,9.03
2023-01-01T18:53:24.562Z,9.07
2023-01-01T18:56:04.037Z,9.09
2023-01-01T18:58:35.902Z,9.07
2023-01-01T19:01:18.140Z,9.03
2023-01-01T19:03:51.762Z,8.99
2023-01-01T19:06:31.299Z,8.94
2023-01-01T19:09:15.351Z,8.88
2023-01-01T19:11:47.555Z,8.82
2023-01-01T19:14:21.382Z,8.75
2023-01-01T19:16:57.215Z,8.66
2023-01-01T19:19:40.235Z,8.58
2023-01-01T19:22:24.749Z,8.49
2023-01-01T19:24:56.431Z,8.42
2023-01-01T19:27:40.776Z,8.32
2023-01-01T19:30:23.235Z,8.26
2023-01-01T19:32:54.972Z,8.26
2023-01-01T19:35:26.748Z,8.30
2023-01-01T19:37:58.370Z,8.38
2023-01-01T19:40:30.703Z,8.42
2023-01-01T19:43:03.866Z,8.48
2023-01-01T19:45:35.917Z,8.58
2023-01-01T19:48:08.237Z,8.65
2023-01-01T19:50:39.890Z,8.70
2023-01-01T19:53:11.768Z,8.72
2023-01-01T19:55:43.730Z,8.70
2023-01-01T19:58:15.911Z,8.69
2023-01-01T20:00:47.887Z,8.69
2023-01-01T20:03:52.323Z,8.69
2023-01-01T20:06:12.719Z,8.65
2023-01-01T20:08:44.379Z,8.64
2023-01-01T20:11:16.542Z,8.69
2023-01-01T20:13:48.428Z,8.73
2023-01-01T20:16:20.263Z,8.79
2023-01-01T20:18:52.092Z,8.86
2023-01-01T20:21:41.306Z,8.89
2023-01-01T20:24:12.916Z,8.90
2023-01-01T20:26:44.629Z,8.90
2023-01-01T20:29:22.510Z,8.89
2023-01-01T20:31:55.305Z,8.86
2023-01-01T20:34:27.672Z,8.83
2023-01-01T20:37:17.183Z,8.80
2023-01-01T20:39:48.969Z,8.77
2023-01-01T20:42:20.994Z,8.74
2023-01-01T20:44:52.689Z,8.72
2023-01-01T20:47:24.968Z,8.71
2023-01-01T20:49:56.543Z,8.73
2023-01-01T20:52:28.207Z,8.73
2023-01-01T20:54:59.923Z,8.76
2023-01-01T20:57:31.489Z,8.79
2023-01-01T21:00:03.307Z,8.83
2023-01-01T21:02:36.702Z,8.85
2023-01-01T21:05:10.232Z,8.85
2023-01-01T21:07:41.840Z,8.84
2023-01-01T21:10:13.745Z,8.82
2023-01-01T21:12:46.365Z,8.78
2023-01-01T21:15:18.927Z,8.71
2023-01-01T21:17:50.508Z,8.64
2023-01-01T21:20:22.096Z,8.57
2023-01-01T21:22:54.668Z,8.50
2023-01-01T21:28:20.442Z,8.36
2023-01-01T21:30:55.325Z,8.35
2023-01-01T21:33:30.170Z,8.36
2023-01-01T21:36:06.567Z,8.37
2023-01-01T21:38:38.175Z,8.36
2023-01-01T21:41:16.709Z,8.38
2023-01-01T21:43:50.344Z,8.41
2023-01-01T21:46:26.155Z,8.43
2023-01-01T21:49:02.016Z,8.45
2023-01-01T21:51:40.307Z,8.44
2023-01-01T21:54:26.363Z,8.45
2023-01-01T21:57:02.551Z,8.43
2023-01-01T21:59:39.347Z,8.41
2023-01-01T22:02:39.871Z,8.40
2023-01-01T22:05:31.377Z,8.41
2023-01-01T22:08:25.901Z,8.40
2023-01-01T22:10:58.967Z,8.40
2023-01-01T22:13:31.095Z,8.39
2023-01-01T22:16:03.203Z,8.41
2023-01-01T22:18:40.064Z,8.42
2023-01-01T22:21:18.357Z,8.44
2023-01-01T22:23:50.215Z,8.41
2023-01-01T22:26:24.659Z,8.36
2023-01-01T22:29:01.071Z,8.33
2023-01-01T22:31:36.366Z,8.31
2023-01-01T22:34:19.128Z,8.26
2023-01-01T22:36:51.077Z,8.19
2023-01-01T22:39:35.881Z,8.13
2023-01-01T22:42:10.049Z,8.04
2023-01-01T22:44:42.511Z,7.94
2023-01-01T22:47:18.430Z,7.86
2023-01-01T22:49:53.081Z,7.85
2023-01-01T22:52:24.768Z,7.86
2023-01-01T22:54:56.407Z,7.87
2023-01-01T22:57:28.042Z,7.87
2023-01-01T22:59:59.893Z,7.83
2023-01-01T23:02:31.581Z,7.76
2023-01-01T23:05:03.580Z,7.66
2023-01-01T23:07:41.438Z,7.56
2023-01-01T23:10:19.935Z,7.44
2023-01-01T23:12:51.547Z,7.31
2023-01-01T23:15:40.641Z,7.21
2023-01-01T23:18:12.210Z,7.09
2023-01-01T23:20:43.853Z,6.97
2023-01-01T23:23:16.114Z,6.82
2023-01-01T23:25:47.807Z,6.68
2023-01-01T23:28:20.508Z,6.62
2023-01-01T23:30:52.579Z,6.56
2023-01-01T23:33:24.306Z,6.53
2023-01-01T23:35:57.291Z,6.46
2023-01-01T23:38:30.321Z,6.37
2023-01-01T23:41:02.313Z,6.30
2023-01-01T23:43:39.374Z,6.22
2023-01-01T23:46:16.332Z,6.13
2023-01-01T23:48:49.365Z,6.04
2023-01-01T23:51:21.349Z,5.92
2023-01-01T23:53:52.913Z,5.85
2023-01-01T23:56:24.583Z,5.76
2023-01-01T23:58:56.130Z,5.69
